Time;durP1;ratioP1;P1;durP2;ratioP2;P2;SDS_P1;SDS_P2;PMS_P1;PMS_P2;Temp;Humidity;BMP_temperature;BMP_pressure;BME280_temperature;BME280_humidity;BME280_pressure;Samples;Min_cycle;Max_cycle;Signal;HPM_P1;HPM_P2
2021/06/03 07:00:32;;;;;;;21.60;14.52;;;;;;;;;;5039429;22;20106;-44
2021/06/03 07:02:59;;;;;;;21.50;13.75;;;;;;;;;;5050994;28;20472;-46
2021/06/03 07:05:25;;;;;;;19.17;13.73;;;;;;;;;;5045708;28;20473;-46
2021/06/03 07:07:52;;;;;;;19.23;14.18;;;;;;;;;;5050617;28;20029;-45
2021/06/03 07:10:18;;;;;;;22.60;14.23;;;;;;;;;;5031561;28;20028;-50
2021/06/03 07:12:44;;;;;;;20.25;14.32;;;;;;;;;;5053105;28;20083;-45
2021/06/03 07:15:12;;;;;;;18.88;14.43;;;;;;;;;;5025033;28;20469;-50
2021/06/03 07:17:38;;;;;;;18.20;13.23;;;;;;;;;;5031679;28;20032;-51
2021/06/03 07:20:09;;;;;;;17.30;12.73;;;;;;;;;;5032208;28;20086;-51
2021/06/03 07:22:35;;;;;;;17.98;13.30;;;;;;;;;;5051468;28;20028;-47
2021/06/03 07:25:02;;;;;;;16.70;13.57;;;;;;;;;;5043456;28;20480;-49
2021/06/03 07:27:28;;;;;;;16.70;13.60;;;;;;;;;;5028776;28;20433;-46
2021/06/03 07:29:58;;;;;;;17.75;13.52;;;;;;;;;;5041227;28;20022;-47
2021/06/03 07:32:25;;;;;;;16.67;12.07;;;;;;;;;;5033299;28;20136;-46
2021/06/03 07:34:51;;;;;;;14.88;11.98;;;;;;;;;;5047216;28;20104;-48
2021/06/03 07:37:17;;;;;;;20.70;13.10;;;;;;;;;;5041186;28;20033;-47
2021/06/03 07:39:46;;;;;;;16.13;11.80;;;;;;;;;;5033467;28;20253;-50
2021/06/03 07:42:12;;;;;;;15.63;12.45;;;;;;;;;;5048113;28;20024;-48
2021/06/03 07:44:39;;;;;;;16.80;12.20;;;;;;;;;;5044837;28;20032;-49
2021/06/03 07:47:05;;;;;;;15.38;11.82;;;;;;;;;;5020518;28;20032;-48
2021/06/03 07:49:31;;;;;;;15.10;11.55;;;;;;;;;;5047800;28;20469;-48
2021/06/03 07:51:57;;;;;;;14.70;10.87;;;;;;;;;;5029810;28;20546;-47
2021/06/03 07:54:24;;;;;;;15.48;11.93;;;;;;;;;;5047072;28;20029;-48
2021/06/03 07:56:50;;;;;;;15.15;11.15;;;;;;;;;;5047070;28;20146;-50
2021/06/03 07:59:17;;;;;;;13.20;11.20;;;;;;;;;;5047734;28;20068;-52
2021/06/03 08:01:43;;;;;;;14.10;11.43;;;;;;;;;;5048253;28;20279;-47
2021/06/03 08:04:09;;;;;;;14.05;10.77;;;;;;;;;;5018804;28;20097;-50
2021/06/03 08:06:35;;;;;;;13.93;10.32;;;;;;;;;;5047086;28;20090;-50
2021/06/03 08:09:01;;;;;;;14.85;11.48;;;;;;;;;;5050166;28;20033;-50
2021/06/03 08:11:27;;;;;;;14.65;11.65;;;;;;;;;;5050004;28;20056;-48
2021/06/03 08:13:53;;;;;;;17.63;12.63;;;;;;;;;;5050298;28;20080;-49
2021/06/03 08:16:20;;;;;;;16.00;12.43;;;;;;;;;;5047758;28;20099;-48
2021/06/03 08:18:46;;;;;;;20.63;12.88;;;;;;;;;;5050078;28;20021;-48
2021/06/03 08:21:12;;;;;;;15.38;12.43;;;;;;;;;;5049760;28;20093;-47
2021/06/03 08:23:38;;;;;;;17.70;12.18;;;;;;;;;;5049085;28;20029;-49
2021/06/03 08:26:05;;;;;;;16.83;13.23;;;;;;;;;;5046900;28;20039;-48
2021/06/03 08:28:31;;;;;;;17.90;13.10;;;;;;;;;;5041599;28;20127;-51
2021/06/03 08:31:00;;;;;;;18.63;12.98;;;;;;;;;;5049899;28;20144;-47
2021/06/03 08:33:26;;;;;;;17.65;13.18;;;;;;;;;;5031154;28;20033;-47
2021/06/03 08:35:53;;;;;;;18.67;13.80;;;;;;;;;;5035208;28;20029;-47
2021/06/03 08:38:19;;;;;;;18.25;13.00;;;;;;;;;;5016578;28;20500;-51
2021/06/03 08:40:52;;;;;;;20.55;13.32;;;;;;;;;;5038729;28;20075;-49
2021/06/03 08:43:21;;;;;;;17.05;12.93;;;;;;;;;;5036313;28;20021;-52
2021/06/03 08:45:47;;;;;;;16.75;12.43;;;;;;;;;;5038191;28;20430;-50
2021/06/03 08:48:13;;;;;;;19.00;13.67;;;;;;;;;;5040619;28;20076;-50
2021/06/03 08:50:41;;;;;;;19.13;13.50;;;;;;;;;;5047542;28;20044;-50
2021/06/03 08:53:08;;;;;;;18.02;13.18;;;;;;;;;;5046277;28;20031;-51
2021/06/03 08:58:20;;;;;;;18.33;12.50;;;;;;;;;;5047644;28;20114;-48
2021/06/03 09:00:47;;;;;;;14.63;12.50;;;;;;;;;;5048355;28;20519;-48
2021/06/03 09:03:14;;;;;;;17.80;12.57;;;;;;;;;;5039554;28;20489;-47
2021/06/03 09:05:41;;;;;;;16.55;12.88;;;;;;;;;;5040866;28;20009;-49
2021/06/03 09:08:17;;;;;;;18.48;13.43;;;;;;;;;;5044946;28;20074;-50
2021/06/03 09:10:43;;;;;;;14.98;12.57;;;;;;;;;;5041413;28;20401;-50
2021/06/03 09:13:11;;;;;;;16.03;13.10;;;;;;;;;;5043277;28;20104;-48
2021/06/03 09:15:38;;;;;;;16.38;12.43;;;;;;;;;;5047876;28;20110;-47
2021/06/03 09:18:08;;;;;;;17.38;13.43;;;;;;;;;;5046093;28;20024;-47
2021/06/03 09:20:34;;;;;;;16.75;12.25;;;;;;;;;;5038187;28;20025;-51
2021/06/03 09:23:00;;;;;;;20.77;13.80;;;;;;;;;;5026419;28;20096;-47
2021/06/03 09:25:29;;;;;;;17.58;13.20;;;;;;;;;;5048775;28;20021;-48
2021/06/03 09:27:56;;;;;;;16.48;12.55;;;;;;;;;;5048680;28;20104;-48
2021/06/03 09:30:24;;;;;;;14.37;11.97;;;;;;;;;;5049213;28;20175;-48
2021/06/03 09:32:51;;;;;;;19.15;13.13;;;;;;;;;;5037814;28;20021;-48
2021/06/03 09:35:17;;;;;;;19.95;14.32;;;;;;;;;;5048389;28;20132;-47
2021/06/03 09:37:44;;;;;;;18.92;13.23;;;;;;;;;;5047951;28;20025;-50
2021/06/03 09:40:30;;;;;;;17.40;13.40;;;;;;;;;;5045952;28;20500;-50
2021/06/03 09:43:11;;;;;;;19.10;13.70;;;;;;;;;;5046551;28;20075;-47
2021/06/03 09:45:53;;;;;;;19.45;12.70;;;;;;;;;;5025380;28;20487;-46
2021/06/03 09:48:38;;;;;;;20.67;13.93;;;;;;;;;;5048539;28;20059;-45
2021/06/03 09:51:23;;;;;;;21.63;13.88;;;;;;;;;;5047031;28;20025;-46
2021/06/03 09:53:50;;;;;;;16.05;12.20;;;;;;;;;;5052424;28;20078;-44
2021/06/03 09:56:24;;;;;;;18.88;13.55;;;;;;;;;;5034356;28;20037;-45
2021/06/03 09:58:50;;;;;;;22.27;14.57;;;;;;;;;;5033486;28;20152;-46
2021/06/03 10:01:36;;;;;;;20.40;15.55;;;;;;;;;;5051195;28;20462;-48
2021/06/03 10:04:02;;;;;;;21.10;15.95;;;;;;;;;;5046043;28;20468;-44
2021/06/03 10:06:32;;;;;;;24.33;15.82;;;;;;;;;;5040107;28;20112;-45
2021/06/03 10:08:58;;;;;;;21.98;15.90;;;;;;;;;;5046715;28;20052;-46
2021/06/03 10:11:42;;;;;;;24.27;14.65;;;;;;;;;;5047851;28;20121;-47
2021/06/03 10:14:10;;;;;;;19.88;14.02;;;;;;;;;;5045079;28;20028;-50
2021/06/03 10:16:36;;;;;;;18.60;13.45;;;;;;;;;;5040268;28;20045;-48
2021/06/03 10:19:29;;;;;;;18.80;12.85;;;;;;;;;;5033259;28;20503;-47
2021/06/03 10:22:14;;;;;;;19.83;13.27;;;;;;;;;;5027767;28;20041;-49
2021/06/03 10:24:59;;;;;;;17.40;12.50;;;;;;;;;;5050530;28;20029;-47
2021/06/03 10:27:26;;;;;;;16.83;13.05;;;;;;;;;;5044919;28;20082;-48
2021/06/03 10:29:53;;;;;;;17.30;12.13;;;;;;;;;;5041222;28;20036;-46
2021/06/03 10:32:20;;;;;;;15.48;12.30;;;;;;;;;;5050580;28;20048;-47
2021/06/03 10:34:47;;;;;;;15.88;12.80;;;;;;;;;;5047196;28;20078;-47
2021/06/03 10:37:14;;;;;;;14.43;11.20;;;;;;;;;;5051014;28;20396;-43
2021/06/03 10:39:40;;;;;;;;;;;;;;;;;;5033246;28;20094;-46
2021/06/03 10:42:06;;;;;;;16.40;11.67;;;;;;;;;;5050010;28;19904;-44
2021/06/03 10:44:32;;;;;;;14.82;11.55;;;;;;;;;;5031858;28;20489;-43
2021/06/03 10:46:58;;;;;;;15.95;11.02;;;;;;;;;;5037076;28;20047;-43
2021/06/03 10:49:30;;;;;;;13.55;10.23;;;;;;;;;;5032395;28;20026;-43
2021/06/03 10:51:56;;;;;;;13.02;10.77;;;;;;;;;;5032142;28;20487;-42
2021/06/03 10:54:42;;;;;;;15.63;11.87;;;;;;;;;;5037519;28;20060;-43
2021/06/03 10:57:09;;;;;;;16.77;12.60;;;;;;;;;;5051587;28;20406;-44
2021/06/03 10:59:37;;;;;;;16.83;11.68;;;;;;;;;;5022217;28;20075;-44
2021/06/03 11:02:04;;;;;;;17.25;11.63;;;;;;;;;;5024246;28;20120;-45
2021/06/03 11:04:30;;;;;;;;;;;;;;;;;;5021456;28;20030;-43
2021/06/03 11:06:56;;;;;;;16.03;12.03;;;;;;;;;;5041804;28;19951;-42
2021/06/03 11:09:26;;;;;;;15.48;11.68;;;;;;;;;;5026742;28;20025;-44
2021/06/03 11:12:05;;;;;;;16.60;11.90;;;;;;;;;;5033117;28;20074;-43
2021/06/03 11:14:32;;;;;;;14.45;11.93;;;;;;;;;;5033360;28;20119;-45
2021/06/03 11:16:59;;;;;;;16.40;12.80;;;;;;;;;;5048280;28;20415;-43
2021/06/03 11:19:26;;;;;;;17.80;11.85;;;;;;;;;;5049607;28;20035;-44
2021/06/03 11:21:52;;;;;;;;;;;;;;;;;;5033805;28;20459;-44
2021/06/03 11:24:21;;;;;;;15.80;11.77;;;;;;;;;;5050198;28;19909;-45
2021/06/03 11:26:47;;;;;;;15.43;11.55;;;;;;;;;;5048095;28;20036;-45
2021/06/03 11:29:16;;;;;;;17.63;12.35;;;;;;;;;;5050261;28;20143;-44
2021/06/03 11:31:44;;;;;;;15.15;11.73;;;;;;;;;;5051114;28;20100;-45
2021/06/03 11:34:16;;;;;;;14.45;11.82;;;;;;;;;;5032884;28;20033;-44
2021/06/03 11:36:44;;;;;;;14.00;11.95;;;;;;;;;;5051031;28;20140;-49
2021/06/03 11:39:28;;;;;;;15.40;12.23;;;;;;;;;;5051249;28;20029;-43
2021/06/03 11:42:17;;;;;;;13.57;12.05;;;;;;;;;;5050954;28;20032;-43
2021/06/03 11:45:03;;;;;;;15.40;11.82;;;;;;;;;;5050261;28;20021;-44
2021/06/03 11:47:52;;;;;;;16.25;13.10;;;;;;;;;;5050540;28;20032;-43
2021/06/03 11:50:18;;;;;;;15.88;11.60;;;;;;;;;;5034857;28;20033;-43
2021/06/03 11:52:56;;;;;;;15.40;12.23;;;;;;;;;;5049313;28;20033;-43
2021/06/03 11:55:41;;;;;;;14.90;11.98;;;;;;;;;;5050429;28;20048;-43
2021/06/03 11:58:21;;;;;;;15.50;12.27;;;;;;;;;;5038869;28;20170;-45
2021/06/03 12:00:47;;;;;;;14.57;11.75;;;;;;;;;;5048088;28;20052;-43
2021/06/03 12:03:50;;;;;;;14.75;12.25;;;;;;;;;;5049290;28;20497;-43
2021/06/03 12:06:16;;;;;;;15.27;11.85;;;;;;;;;;4949627;29;20107;-42
2021/06/03 12:08:47;;;;;;;14.95;12.00;;;;;;;;;;5030112;28;20083;-43
2021/06/03 12:11:21;;;;;;;15.50;12.77;;;;;;;;;;5048830;28;20037;-45
2021/06/03 12:13:48;;;;;;;15.32;12.15;;;;;;;;;;5045239;28;20043;-46
2021/06/03 12:16:14;;;;;;;13.90;11.90;;;;;;;;;;5030915;28;20192;-44
2021/06/03 12:18:42;;;;;;;12.88;11.40;;;;;;;;;;5039634;28;20030;-44
2021/06/03 12:21:09;;;;;;;14.20;11.65;;;;;;;;;;5047411;28;20037;-48
2021/06/03 12:23:44;;;;;;;14.82;11.18;;;;;;;;;;5030961;28;20048;-44
2021/06/03 12:26:14;;;;;;;14.75;11.95;;;;;;;;;;5045697;28;20034;-44
2021/06/03 12:28:40;;;;;;;13.60;11.27;;;;;;;;;;5031673;28;20025;-45
2021/06/03 12:31:06;;;;;;;12.60;10.10;;;;;;;;;;5029298;28;20102;-47
2021/06/03 12:33:35;;;;;;;14.57;11.20;;;;;;;;;;5049358;28;20021;-42
2021/06/03 12:36:05;;;;;;;13.50;11.45;;;;;;;;;;5048652;28;20033;-44
2021/06/03 12:38:38;;;;;;;12.73;10.82;;;;;;;;;;5029545;28;20457;-43
2021/06/03 12:41:21;;;;;;;13.10;10.98;;;;;;;;;;5047521;28;20488;-48
2021/06/03 12:43:49;;;;;;;12.52;10.35;;;;;;;;;;5040280;28;20025;-47
2021/06/03 12:46:16;;;;;;;12.90;10.20;;;;;;;;;;5044706;28;20025;-46
2021/06/03 12:48:42;;;;;;;13.65;10.32;;;;;;;;;;5031131;28;20439;-47
2021/06/03 12:51:09;;;;;;;12.38;10.00;;;;;;;;;;5049701;28;20028;-46
2021/06/03 12:53:38;;;;;;;14.25;10.57;;;;;;;;;;5048528;28;20048;-49
2021/06/03 12:56:12;;;;;;;11.50;10.30;;;;;;;;;;5049486;28;20434;-46
2021/06/03 12:58:38;;;;;;;11.25;10.13;;;;;;;;;;5049585;28;20163;-49
2021/06/03 13:01:07;;;;;;;16.75;9.88;;;;;;;;;;5049568;28;20060;-47
2021/06/03 13:03:34;;;;;;;12.23;9.98;;;;;;;;;;5048757;28;20790;-51
2021/06/03 13:06:07;;;;;;;12.35;9.88;;;;;;;;;;5041065;28;20036;-50
2021/06/03 13:08:42;;;;;;;12.05;10.20;;;;;;;;;;5049232;28;20034;-49
2021/06/03 13:11:08;;;;;;;11.13;9.75;;;;;;;;;;5031304;28;20021;-50
2021/06/03 13:13:34;;;;;;;10.63;9.53;;;;;;;;;;5049440;28;20028;-49
2021/06/03 13:16:00;;;;;;;10.95;9.48;;;;;;;;;;5045053;28;20040;-48
2021/06/03 13:18:27;;;;;;;12.20;10.10;;;;;;;;;;5042254;28;20025;-48
2021/06/03 13:20:55;;;;;;;14.00;10.55;;;;;;;;;;5031894;28;20345;-46
2021/06/03 13:23:26;;;;;;;11.77;10.10;;;;;;;;;;5014593;28;20064;-45
2021/06/03 13:25:54;;;;;;;11.20;9.93;;;;;;;;;;5024149;28;20450;-47
2021/06/03 13:28:25;;;;;;;12.32;10.40;;;;;;;;;;5049611;28;20491;-48
2021/06/03 13:30:53;;;;;;;12.38;11.07;;;;;;;;;;5034369;28;20035;-49
2021/06/03 13:33:20;;;;;;;14.30;11.60;;;;;;;;;;5040422;28;20128;-47
2021/06/03 13:35:48;;;;;;;13.52;9.90;;;;;;;;;;5040926;28;20052;-47
2021/06/03 13:38:15;;;;;;;10.80;9.68;;;;;;;;;;5032702;28;20053;-46
2021/06/03 13:40:44;;;;;;;13.13;10.10;;;;;;;;;;5042653;28;20389;-47
2021/06/03 13:43:15;;;;;;;11.70;10.25;;;;;;;;;;5034172;28;20029;-51
2021/06/03 13:45:43;;;;;;;12.70;10.45;;;;;;;;;;5027725;28;20033;-47
2021/06/03 13:48:15;;;;;;;12.10;9.95;;;;;;;;;;5035009;28;20047;-47
2021/06/03 13:50:50;;;;;;;11.73;9.77;;;;;;;;;;5052653;28;20029;-48
2021/06/03 13:53:26;;;;;;;12.40;10.13;;;;;;;;;;5052645;28;20021;-47
2021/06/03 13:55:54;;;;;;;13.90;11.25;;;;;;;;;;5048643;28;20466;-46
2021/06/03 13:58:34;;;;;;;15.02;12.23;;;;;;;;;;5033316;28;20033;-47
2021/06/03 14:01:18;;;;;;;12.95;11.25;;;;;;;;;;5052762;28;20068;-48
2021/06/03 14:03:55;;;;;;;14.05;10.88;;;;;;;;;;5050284;28;20434;-48
2021/06/03 14:06:30;;;;;;;13.40;10.82;;;;;;;;;;5033239;28;20444;-49
2021/06/03 14:08:56;;;;;;;12.75;11.40;;;;;;;;;;5035039;28;20076;-50
2021/06/03 14:13:56;;;;;;;12.35;10.50;;;;;;;;;;5052745;28;20060;-48
2021/06/03 14:16:41;;;;;;;13.98;11.07;;;;;;;;;;5022613;28;20489;-47
2021/06/03 14:19:15;;;;;;;12.73;10.73;;;;;;;;;;5052346;28;20070;-48
2021/06/03 14:22:13;;;;;;;12.45;10.38;;;;;;;;;;5018414;28;20025;-49
2021/06/03 14:24:40;;;;;;;13.35;10.55;;;;;;;;;;4992378;28;20045;-47
2021/06/03 14:27:10;;;;;;;12.07;10.63;;;;;;;;;;5051517;28;20511;-50
2021/06/03 14:29:43;;;;;;;12.85;10.80;;;;;;;;;;5050534;28;20028;-49
2021/06/03 14:32:13;;;;;;;11.98;10.77;;;;;;;;;;5034047;28;20090;-48
2021/06/03 14:34:39;;;;;;;12.60;9.93;;;;;;;;;;5052382;28;20021;-49
2021/06/03 14:37:07;;;;;;;11.60;10.07;;;;;;;;;;5032867;28;20033;-50
2021/06/03 14:39:45;;;;;;;13.43;10.45;;;;;;;;;;5052487;28;20262;-50
2021/06/03 14:42:30;;;;;;;11.85;10.27;;;;;;;;;;5039980;28;20021;-51
2021/06/03 14:45:01;;;;;;;11.15;9.85;;;;;;;;;;5049063;28;20427;-48
2021/06/03 14:47:27;;;;;;;11.98;10.73;;;;;;;;;;5044265;28;20029;-46
2021/06/03 14:49:54;;;;;;;10.40;9.23;;;;;;;;;;5051983;28;20067;-50
2021/06/03 14:52:26;;;;;;;10.85;9.65;;;;;;;;;;5033682;28;20025;-51
2021/06/03 14:54:53;;;;;;;11.88;9.52;;;;;;;;;;5051640;28;20120;-46
2021/06/03 14:57:19;;;;;;;11.30;10.10;;;;;;;;;;5032945;28;20190;-46
2021/06/03 14:59:45;;;;;;;10.67;9.57;;;;;;;;;;5039058;28;20904;-48
2021/06/03 15:02:11;;;;;;;11.55;10.23;;;;;;;;;;5032984;28;20025;-48
2021/06/03 15:04:38;;;;;;;12.73;9.73;;;;;;;;;;5051696;28;20029;-51
2021/06/03 15:07:04;;;;;;;11.88;10.13;;;;;;;;;;5033356;28;20025;-53
2021/06/03 15:09:30;;;;;;;10.50;9.20;;;;;;;;;;5033190;28;20032;-45
2021/06/03 15:11:56;;;;;;;14.07;10.97;;;;;;;;;;5050344;28;20382;-44
2021/06/03 15:14:23;;;;;;;14.25;10.77;;;;;;;;;;5047316;28;20021;-44
2021/06/03 15:16:49;;;;;;;15.50;11.80;;;;;;;;;;5045157;28;20040;-44
2021/06/03 15:19:15;;;;;;;16.98;12.25;;;;;;;;;;5043169;28;20030;-44
2021/06/03 15:21:43;;;;;;;15.90;12.45;;;;;;;;;;5026528;28;20025;-44
2021/06/03 15:24:10;;;;;;;17.83;11.93;;;;;;;;;;5032064;28;20025;-44
2021/06/03 15:26:36;;;;;;;17.93;12.40;;;;;;;;;;5032303;28;20025;-45
2021/06/03 15:29:02;;;;;;;15.88;11.90;;;;;;;;;;5032562;28;20021;-45
2021/06/03 15:31:28;;;;;;;18.60;12.70;;;;;;;;;;5048779;28;20040;-46
2021/06/03 15:33:56;;;;;;;19.05;13.32;;;;;;;;;;5039497;28;20021;-44
2021/06/03 15:36:22;;;;;;;18.75;12.55;;;;;;;;;;5032578;28;20037;-45
2021/06/03 15:38:52;;;;;;;15.13;11.77;;;;;;;;;;5049446;28;20040;-44
2021/06/03 15:41:18;;;;;;;16.70;11.85;;;;;;;;;;5032510;28;20020;-49
2021/06/03 15:43:44;;;;;;;16.42;12.23;;;;;;;;;;5051248;28;20496;-43
2021/06/03 15:46:10;;;;;;;15.97;12.60;;;;;;;;;;5040849;28;20052;-47
2021/06/03 15:48:36;;;;;;;14.45;10.98;;;;;;;;;;5050405;28;20771;-43
2021/06/03 15:51:03;;;;;;;17.15;12.38;;;;;;;;;;5032530;28;20120;-47
2021/06/03 15:53:29;;;;;;;15.83;11.70;;;;;;;;;;5050301;28;20021;-45
2021/06/03 15:55:57;;;;;;;13.15;11.25;;;;;;;;;;5032100;28;20041;-44
2021/06/03 15:58:24;;;;;;;15.82;11.02;;;;;;;;;;5045647;28;20351;-44
2021/06/03 16:00:50;;;;;;;14.00;11.60;;;;;;;;;;5041908;28;20045;-44
2021/06/03 16:03:17;;;;;;;14.65;10.20;;;;;;;;;;5011901;28;20025;-47
2021/06/03 16:05:43;;;;;;;13.82;10.13;;;;;;;;;;5036785;28;20459;-45
2021/06/03 16:08:09;;;;;;;14.90;10.80;;;;;;;;;;5047519;28;20510;-45
2021/06/03 16:10:35;;;;;;;13.87;10.43;;;;;;;;;;5050788;28;20023;-48
2021/06/03 16:13:01;;;;;;;12.55;10.63;;;;;;;;;;5050024;28;20028;-46
2021/06/03 16:15:28;;;;;;;11.80;10.50;;;;;;;;;;5049108;28;20048;-48
2021/06/03 16:17:58;;;;;;;12.70;10.30;;;;;;;;;;5015790;28;20051;-46
2021/06/03 16:20:25;;;;;;;14.27;10.48;;;;;;;;;;5050082;28;20029;-46
2021/06/03 16:22:52;;;;;;;15.43;10.57;;;;;;;;;;5049933;28;20381;-49
2021/06/03 16:25:18;;;;;;;12.55;10.00;;;;;;;;;;5037131;28;20080;-45
2021/06/03 16:27:46;;;;;;;12.45;10.23;;;;;;;;;;5046629;28;20025;-45
2021/06/03 16:30:20;;;;;;;12.32;9.88;;;;;;;;;;5032473;28;20040;-47
2021/06/03 16:32:54;;;;;;;10.73;9.45;;;;;;;;;;5031137;28;20018;-45
2021/06/03 16:35:20;;;;;;;12.70;9.50;;;;;;;;;;5032897;28;20038;-45
2021/06/03 16:37:47;;;;;;;11.52;9.48;;;;;;;;;;5023137;28;20260;-45
2021/06/03 16:40:14;;;;;;;11.50;9.38;;;;;;;;;;5028597;28;20037;-46
2021/06/03 16:42:40;;;;;;;10.13;8.48;;;;;;;;;;5050785;28;20028;-45
2021/06/03 16:45:08;;;;;;;10.57;9.02;;;;;;;;;;5030824;28;20032;-45
2021/06/03 16:47:35;;;;;;;10.45;8.82;;;;;;;;;;5050203;28;20021;-47
2021/06/03 16:50:01;;;;;;;11.60;9.05;;;;;;;;;;5029972;28;20154;-49
2021/06/03 16:52:27;;;;;;;12.40;8.83;;;;;;;;;;5049135;28;20033;-47
2021/06/03 16:54:53;;;;;;;11.45;8.85;;;;;;;;;;5049768;28;20256;-47
2021/06/03 16:57:19;;;;;;;10.00;8.73;;;;;;;;;;5031808;28;20021;-49
2021/06/03 16:59:45;;;;;;;10.50;8.53;;;;;;;;;;5051719;28;20118;-49
2021/06/03 17:02:12;;;;;;;10.02;8.95;;;;;;;;;;5053597;28;20044;-46
2021/06/03 17:04:38;;;;;;;11.00;8.95;;;;;;;;;;5026045;28;20026;-46
2021/06/03 17:07:04;;;;;;;10.60;9.50;;;;;;;;;;5050796;28;20044;-46
2021/06/03 17:09:30;;;;;;;9.95;8.63;;;;;;;;;;5053837;28;20103;-47
2021/06/03 17:11:56;;;;;;;11.60;9.20;;;;;;;;;;5053638;28;20111;-46
2021/06/03 17:14:22;;;;;;;9.82;8.60;;;;;;;;;;5031572;28;20066;-48
2021/06/03 17:16:48;;;;;;;9.83;8.53;;;;;;;;;;5050756;28;20029;-46
2021/06/03 17:19:15;;;;;;;10.07;8.30;;;;;;;;;;5053364;28;20029;-51
2021/06/03 17:21:41;;;;;;;9.32;8.32;;;;;;;;;;5053275;28;20033;-48
2021/06/03 17:24:09;;;;;;;9.02;7.93;;;;;;;;;;5053745;28;20032;-49
2021/06/03 20:56:20;;;;;;;5.97;3.70;;;;;;;;;;5133098;22;20048;-43
2021/06/03 20:58:48;;;;;;;4.93;3.65;;;;;;;;;;5049793;28;20051;-48
2021/06/03 21:01:14;;;;;;;7.47;3.38;;;;;;;;;;5030382;28;20120;-50
2021/06/03 21:03:40;;;;;;;10.57;4.25;;;;;;;;;;5046576;28;20029;-48
2021/06/03 21:06:07;;;;;;;12.43;4.40;;;;;;;;;;5041853;28;20025;-46
2021/06/03 21:08:33;;;;;;;5.83;3.63;;;;;;;;;;5031911;28;20139;-47
2021/06/03 21:11:00;;;;;;;8.63;3.93;;;;;;;;;;5046667;28;20057;-49
2021/06/03 21:13:26;;;;;;;8.38;3.28;;;;;;;;;;5021814;28;20025;-51
2021/06/03 21:15:52;;;;;;;11.95;3.28;;;;;;;;;;5041414;28;20048;-53
2021/06/03 21:18:19;;;;;;;5.23;3.30;;;;;;;;;;5048960;28;20476;-49
2021/06/03 21:20:45;;;;;;;7.88;3.17;;;;;;;;;;5040634;28;20260;-51
2021/06/03 21:23:11;;;;;;;5.80;2.72;;;;;;;;;;5041965;28;20037;-50
2021/06/03 21:25:38;;;;;;;4.50;2.70;;;;;;;;;;5039902;28;20032;-50
2021/06/03 21:28:05;;;;;;;4.15;2.55;;;;;;;;;;5038561;28;20025;-49
2021/06/03 21:30:35;;;;;;;5.18;2.45;;;;;;;;;;5024434;28;20108;-48
